createdAt,value
2023-02-08T00:00:02.209Z,98881.19
2023-02-08T00:03:04.667Z,98879.75
2023-02-08T00:06:07.459Z,98878.41
2023-02-08T00:09:09.049Z,98873.41
2023-02-08T00:12:10.531Z,98878.00
2023-02-08T00:15:12.058Z,98877.34
2023-02-08T00:18:13.964Z,98878.38
2023-02-08T00:21:17.618Z,98875.22
2023-02-08T00:24:19.343Z,98871.00
2023-02-08T00:27:21.079Z,98868.53
2023-02-08T00:30:22.662Z,98861.00
2023-02-08T00:33:24.259Z,98861.50
2023-02-08T00:36:25.710Z,98855.56
2023-02-08T00:39:27.129Z,98855.53
2023-02-08T00:42:29.516Z,98852.13
2023-02-08T00:45:32.882Z,98838.34
2023-02-08T00:48:34.326Z,98838.81
2023-02-08T00:51:35.869Z,98839.00
2023-02-08T00:54:37.479Z,98829.00
2023-02-08T00:57:40.248Z,98829.94
2023-02-08T01:00:41.987Z,98831.72
2023-02-08T01:03:44.273Z,98826.50
2023-02-08T01:06:46.031Z,98830.94
2023-02-08T01:09:47.496Z,98817.16
2023-02-08T01:12:48.950Z,98813.75
2023-02-08T01:15:50.910Z,98811.00
2023-02-08T01:18:54.286Z,98815.41
2023-02-08T01:21:56.328Z,98812.81
2023-02-08T01:24:58.271Z,98806.06
2023-02-08T01:27:59.841Z,98802.69
2023-02-08T01:31:08.441Z,98797.72
2023-02-08T01:34:11.420Z,98799.31
2023-02-08T01:37:12.919Z,98794.94
2023-02-08T01:40:14.486Z,98792.63
2023-02-08T01:43:22.579Z,98796.78
2023-02-08T01:46:24.122Z,98784.88
2023-02-08T01:49:29.954Z,98787.25
2023-02-08T01:52:31.531Z,98781.78
2023-02-08T01:55:38.320Z,98772.66
2023-02-08T01:58:44.873Z,98780.41
2023-02-08T02:01:48.998Z,98775.28
2023-02-08T02:04:52.312Z,98769.31
2023-02-08T02:07:55.641Z,98764.97
2023-02-08T02:10:57.090Z,98773.69
2023-02-08T02:13:59.082Z,98767.03
2023-02-08T02:17:01.483Z,98764.69
2023-02-08T02:20:24.261Z,98762.88
2023-02-08T02:23:50.111Z,98757.75
2023-02-08T02:27:25.013Z,98758.06
2023-02-08T02:30:50.941Z,98759.72
2023-02-08T02:34:01.308Z,98749.06
2023-02-08T02:37:10.494Z,98745.84
2023-02-08T02:40:14.757Z,98746.91
2023-02-08T02:43:42.334Z,98754.88
2023-02-08T02:46:52.657Z,98754.28
2023-02-08T02:50:02.581Z,98748.22
2023-02-08T02:53:11.325Z,98751.34
2023-02-08T02:56:18.112Z,98755.06
2023-02-08T02:59:20.175Z,98742.13
2023-02-08T03:02:22.069Z,98746.41
2023-02-08T03:05:23.618Z,98750.22
2023-02-08T03:08:46.172Z,98741.66
2023-02-08T03:12:06.963Z,98739.38
2023-02-08T03:15:17.625Z,98750.22
2023-02-08T03:19:05.955Z,98747.16
2023-02-08T03:22:25.720Z,98751.66
2023-02-08T03:25:36.635Z,98752.59
2023-02-08T03:28:46.873Z,98754.41
2023-02-08T03:31:56.093Z,98750.13
2023-02-08T03:35:04.682Z,98747.53
2023-02-08T03:38:13.142Z,98747.19
2023-02-08T03:41:22.713Z,98749.09
2023-02-08T03:44:37.135Z,98744.16
2023-02-08T03:47:42.865Z,98753.16
2023-02-08T03:50:48.184Z,98743.19
2023-02-08T03:53:53.583Z,98747.88
2023-02-08T03:57:08.007Z,98747.66
2023-02-08T04:00:13.224Z,98750.34
2023-02-08T04:03:23.399Z,98751.53
2023-02-08T04:06:25.047Z,98737.06
2023-02-08T04:09:26.527Z,98732.22
2023-02-08T04:12:27.971Z,98725.34
2023-02-08T04:15:29.429Z,98723.94
2023-02-08T04:18:31.195Z,98724.44
2023-02-08T04:21:33.288Z,98718.53
2023-02-08T04:24:34.724Z,98721.00
2023-02-08T04:27:36.273Z,98722.25
2023-02-08T04:30:37.754Z,98723.13
2023-02-08T04:33:39.261Z,98726.44
2023-02-08T04:36:41.045Z,98736.97
2023-02-08T04:39:42.537Z,98725.66
2023-02-08T04:42:43.992Z,98720.53
2023-02-08T04:45:45.507Z,98730.34
2023-02-08T04:48:46.981Z,98728.53
2023-02-08T04:51:48.412Z,98731.56
2023-02-08T04:54:49.941Z,98727.16
2023-02-08T04:57:51.608Z,98726.38
2023-02-08T05:00:53.050Z,98726.59
2023-02-08T05:03:55.014Z,98723.28
2023-02-08T05:06:56.462Z,98717.44
2023-02-08T05:09:57.915Z,98716.28
2023-02-08T05:12:59.691Z,98720.81
2023-02-08T05:16:01.210Z,98713.47
2023-02-08T05:19:02.713Z,98719.53
2023-02-08T05:22:04.159Z,98704.25
2023-02-08T05:25:06.449Z,98710.19
2023-02-08T05:28:07.948Z,98705.03
2023-02-08T05:31:11.782Z,98706.78
2023-02-08T05:34:13.379Z,98706.84
2023-02-08T05:37:14.826Z,98707.88
2023-02-08T05:40:16.409Z,98706.44
2023-02-08T05:43:17.919Z,98704.47
2023-02-08T05:46:19.442Z,98703.25
2023-02-08T05:49:20.900Z,98711.19
2023-02-08T05:52:22.370Z,98710.31
2023-02-08T05:55:23.916Z,98694.31
2023-02-08T05:58:25.591Z,98716.09
2023-02-08T06:01:27.306Z,98721.19
2023-02-08T06:04:28.954Z,98724.25
2023-02-08T06:07:30.458Z,98722.69
2023-02-08T06:10:32.099Z,98725.56
2023-02-08T06:13:33.765Z,98728.38
2023-02-08T06:16:35.328Z,98737.59
2023-02-08T06:19:36.833Z,98733.13
2023-02-08T06:22:38.458Z,98733.06
2023-02-08T06:25:39.921Z,98730.38
2023-02-08T06:28:41.367Z,98736.66
2023-02-08T06:31:42.949Z,98725.56
2023-02-08T06:34:44.576Z,98734.06
2023-02-08T06:37:46.008Z,98734.78
2023-02-08T06:40:48.070Z,98735.28
2023-02-08T06:43:49.527Z,98737.94
2023-02-08T06:46:51.354Z,98725.81
2023-02-08T06:49:53.461Z,98745.88
2023-02-08T06:52:55.001Z,98746.19
2023-02-08T06:55:56.735Z,98742.94
2023-02-08T06:58:58.313Z,98740.84
2023-02-08T07:02:01.310Z,98748.03
2023-02-08T07:05:03.106Z,98752.84
2023-02-08T07:08:05.423Z,98750.47
2023-02-08T07:11:11.360Z,98754.22
2023-02-08T07:14:14.500Z,98754.56
2023-02-08T07:17:16.040Z,98752.97
2023-02-08T07:20:17.615Z,98767.09
2023-02-08T07:23:19.052Z,98769.84
2023-02-08T07:26:20.477Z,98775.72
2023-02-08T07:29:22.063Z,98770.09
2023-02-08T07:32:23.569Z,98775.81
2023-02-08T07:35:25.059Z,98780.03
2023-02-08T07:38:26.648Z,98776.84
2023-02-08T07:41:28.540Z,98772.88
2023-02-08T07:44:30.151Z,98773.44
2023-02-08T07:47:31.686Z,98783.56
2023-02-08T07:50:33.288Z,98775.91
2023-02-08T07:53:35.098Z,98790.72
2023-02-08T07:56:36.746Z,98787.22
2023-02-08T07:59:38.211Z,98793.81
2023-02-08T08:02:39.805Z,98786.59
2023-02-08T08:05:41.732Z,98801.69
2023-02-08T08:08:47.253Z,98799.53
2023-02-08T08:11:48.801Z,98794.41
2023-02-08T08:14:51.389Z,98791.16
2023-02-08T08:17:53.265Z,98796.63
2023-02-08T08:20:54.789Z,98793.25
2023-02-08T08:23:56.324Z,98792.66
2023-02-08T08:26:57.968Z,98785.03
2023-02-08T08:29:59.931Z,98790.06
2023-02-08T08:33:01.425Z,98789.28
2023-02-08T08:36:02.980Z,98784.81
2023-02-08T08:39:04.509Z,98781.94
2023-02-08T08:42:06.063Z,98778.97
2023-02-08T08:45:08.632Z,98778.66
2023-02-08T08:48:10.817Z,98775.59
2023-02-08T08:51:12.673Z,98772.88
2023-02-08T08:54:14.297Z,98761.28
2023-02-08T08:57:16.304Z,98766.91
2023-02-08T09:00:17.991Z,98764.56
2023-02-08T09:08:07.423Z,98757.94
2023-02-08T09:11:11.776Z,98763.56
2023-02-08T09:14:13.360Z,98758.84
2023-02-08T09:17:14.847Z,98759.34
2023-02-08T09:20:16.584Z,98759.13
2023-02-08T09:23:18.024Z,98761.03
2023-02-08T09:26:20.163Z,98763.28
2023-02-08T09:29:21.618Z,98753.59
2023-02-08T09:32:23.243Z,98762.59
2023-02-08T09:35:24.847Z,98752.78
2023-02-08T09:38:26.856Z,98754.34
2023-02-08T09:41:36.830Z,98753.91
2023-02-08T09:45:00.341Z,98760.50
2023-02-08T09:48:14.063Z,98748.28
2023-02-08T09:51:38.905Z,98750.09
2023-02-08T09:54:46.454Z,98742.09
2023-02-08T09:57:53.353Z,98740.88
2023-02-08T10:00:55.789Z,98749.13
2023-02-08T10:04:19.880Z,98744.69
2023-02-08T10:07:21.366Z,98745.31
2023-02-08T10:10:43.772Z,98748.19
2023-02-08T10:13:48.406Z,98750.53
2023-02-08T10:17:14.192Z,98741.00
2023-02-08T10:20:40.043Z,98745.75
2023-02-08T10:23:56.820Z,98746.13
2023-02-08T10:27:04.590Z,98750.50
2023-02-08T10:30:11.850Z,98742.63
2023-02-08T10:33:29.109Z,98751.19
2023-02-08T10:36:41.821Z,98733.41
2023-02-08T10:39:43.787Z,98744.22
2023-02-08T10:43:00.672Z,98736.31
2023-02-08T10:46:08.379Z,98731.16
2023-02-08T10:49:09.831Z,98726.09
2023-02-08T10:52:11.372Z,98721.44
2023-02-08T10:55:15.137Z,98736.72
2023-02-08T10:58:20.240Z,98719.28
2023-02-08T11:01:22.442Z,98714.34
2023-02-08T11:04:24.491Z,98711.84
2023-02-08T11:07:26.042Z,98700.66
2023-02-08T11:10:27.780Z,98701.09
2023-02-08T11:13:51.377Z,98701.13
2023-02-08T11:16:57.198Z,98700.25
2023-02-08T11:19:59.790Z,98700.53
2023-02-08T11:23:01.431Z,98698.84
2023-02-08T11:26:33.761Z,98695.97
2023-02-08T11:29:35.272Z,98690.59
2023-02-08T11:32:36.841Z,98695.81
2023-02-08T11:35:38.389Z,98691.56
2023-02-08T11:38:42.948Z,98685.97
2023-02-08T11:41:47.668Z,98685.97
2023-02-08T11:44:50.086Z,98680.88
2023-02-08T11:47:52.487Z,98682.47
2023-02-08T11:51:00.895Z,98679.09
2023-02-08T11:54:04.551Z,98675.91
2023-02-08T11:57:19.233Z,98681.50
2023-02-08T12:00:25.382Z,98679.50
2023-02-08T12:03:36.281Z,98676.16
2023-02-08T12:06:43.966Z,98665.50
2023-02-08T12:10:19.791Z,98656.28
2023-02-08T12:13:36.396Z,98658.91
2023-02-08T12:16:51.225Z,98651.38
2023-02-08T12:20:23.162Z,98645.44
2023-02-08T12:23:49.885Z,98637.22
2023-02-08T12:27:00.454Z,98638.97
2023-02-08T12:30:30.342Z,98628.44
2023-02-08T12:33:33.518Z,98630.22
2023-02-08T12:37:12.280Z,98626.00
2023-02-08T12:40:49.702Z,98622.66
2023-02-08T12:44:10.767Z,98628.16
2023-02-08T12:47:33.549Z,98623.94
2023-02-08T12:50:49.462Z,98623.47
2023-02-08T12:53:56.144Z,98612.56
2023-02-08T12:57:02.336Z,98612.84
2023-02-08T13:00:15.670Z,98615.78
2023-02-08T13:03:32.792Z,98613.28
2023-02-08T13:06:43.504Z,98611.69
2023-02-08T13:10:06.401Z,98617.31
2023-02-08T13:13:19.224Z,98604.81
2023-02-08T13:16:27.418Z,98604.78
2023-02-08T13:19:48.188Z,98608.22
2023-02-08T13:23:03.959Z,98603.03
2023-02-08T13:26:19.542Z,98592.00
2023-02-08T13:29:23.189Z,98592.00
2023-02-08T13:32:52.324Z,98589.84
2023-02-08T13:35:54.616Z,98597.16
2023-02-08T13:38:59.478Z,98585.72
2023-02-08T13:42:03.187Z,98575.56
2023-02-08T13:45:06.355Z,98587.09
2023-02-08T13:48:12.318Z,98583.34
2023-02-08T13:51:28.971Z,98584.47
2023-02-08T13:54:30.692Z,98587.00
2023-02-08T13:57:55.634Z,98593.91
2023-02-08T14:00:57.026Z,98592.81
2023-02-08T14:04:07.652Z,98596.66
2023-02-08T14:07:12.159Z,98593.00
2023-02-08T14:10:24.830Z,98592.81
2023-02-08T14:13:34.900Z,98591.78
2023-02-08T14:16:39.621Z,98587.09
2023-02-08T14:19:44.407Z,98588.88
2023-02-08T14:22:55.212Z,98590.81
2023-02-08T14:26:00.440Z,98601.13
2023-02-08T14:29:05.169Z,98606.06
2023-02-08T14:32:07.031Z,98603.03
2023-02-08T14:35:11.565Z,98602.84
2023-02-08T14:38:19.256Z,98604.59
2023-02-08T14:41:44.882Z,98594.66
2023-02-08T14:44:55.826Z,98604.59
2023-02-08T14:48:05.183Z,98602.19
2023-02-08T14:51:09.455Z,98599.59
2023-02-08T14:54:21.861Z,98588.22
2023-02-08T14:57:28.900Z,98606.78
2023-02-08T15:00:35.349Z,98600.19
2023-02-08T15:03:39.700Z,98598.09
2023-02-08T15:07:11.396Z,98606.50
2023-02-08T15:10:16.340Z,98605.41
2023-02-08T15:13:24.145Z,98596.34
2023-02-08T15:16:34.090Z,98607.69
2023-02-08T15:19:43.102Z,98599.41
2023-02-08T15:22:45.461Z,98598.00
2023-02-08T15:26:02.992Z,98599.97
2023-02-08T15:29:17.984Z,98594.53
2023-02-08T15:32:22.666Z,98579.44
2023-02-08T15:35:25.898Z,98583.94
2023-02-08T15:38:29.242Z,98592.53
2023-02-08T15:41:38.062Z,98598.63
2023-02-08T15:44:43.769Z,98594.41
2023-02-08T15:47:45.630Z,98606.16
2023-02-08T15:50:47.808Z,98591.78
2023-02-08T15:53:52.473Z,98597.00
2023-02-08T15:57:02.316Z,98598.22
2023-02-08T16:00:23.020Z,98595.31
2023-02-08T16:03:26.489Z,98604.63
2023-02-08T16:06:36.986Z,98611.91
2023-02-08T16:09:38.754Z,98612.44
2023-02-08T16:12:40.293Z,98608.59
2023-02-08T16:15:45.608Z,98612.31
2023-02-08T16:19:01.573Z,98612.84
2023-02-08T16:22:28.225Z,98615.88
2023-02-08T16:25:29.711Z,98622.56
2023-02-08T16:28:33.558Z,98637.97
2023-02-08T16:31:35.797Z,98622.50
2023-02-08T16:34:38.580Z,98634.75
2023-02-08T16:37:40.262Z,98625.53
2023-02-08T16:40:48.921Z,98623.13
2023-02-08T16:44:22.625Z,98608.66
2023-02-08T16:47:35.278Z,98624.91
2023-02-08T16:50:38.237Z,98626.59
2023-02-08T16:53:42.599Z,98632.13
2023-02-08T16:56:46.569Z,98634.50
2023-02-08T16:59:48.098Z,98632.41
2023-02-08T17:02:50.552Z,98641.16
2023-02-08T17:05:52.545Z,98643.06
2023-02-08T17:08:54.051Z,98634.84
2023-02-08T17:11:55.558Z,98634.44
2023-02-08T17:14:57.028Z,98637.34
2023-02-08T17:17:58.562Z,98643.69
2023-02-08T17:21:01.565Z,98640.59
2023-02-08T17:24:03.268Z,98640.59
2023-02-08T17:27:05.037Z,98644.25
2023-02-08T17:30:06.853Z,98636.81
2023-02-08T17:33:11.570Z,98643.97
2023-02-08T17:36:14.724Z,98646.84
2023-02-08T17:39:17.812Z,98646.66
2023-02-08T17:42:19.269Z,98660.25
2023-02-08T17:45:21.185Z,98665.16
2023-02-08T17:48:22.652Z,98655.13
2023-02-08T17:51:24.685Z,98653.66
2023-02-08T17:54:26.134Z,98652.13
2023-02-08T17:57:30.389Z,98648.19
2023-02-08T18:00:34.590Z,98643.53
2023-02-08T18:03:36.571Z,98655.63
2023-02-08T18:06:38.083Z,98652.59
2023-02-08T18:09:39.520Z,98655.34
2023-02-08T18:12:41.656Z,98650.16
2023-02-08T18:15:44.289Z,98661.75
2023-02-08T18:18:46.060Z,98653.69
2023-02-08T18:21:47.566Z,98652.31
2023-02-08T18:24:49.164Z,98650.78
2023-02-08T18:27:50.669Z,98648.56
2023-02-08T18:30:52.310Z,98646.38
2023-02-08T18:33:54.402Z,98652.47
2023-02-08T18:36:55.994Z,98660.00
2023-02-08T18:39:57.529Z,98657.69
2023-02-08T18:42:58.958Z,98663.03
2023-02-08T18:46:12.528Z,98658.25
2023-02-08T18:49:15.997Z,98657.19
2023-02-08T18:52:17.472Z,98658.03
2023-02-08T18:55:18.905Z,98662.50
2023-02-08T18:58:20.829Z,98653.19
2023-02-08T19:01:24.294Z,98654.22
2023-02-08T19:04:26.352Z,98649.94
2023-02-08T19:07:27.833Z,98651.84
2023-02-08T19:10:29.248Z,98642.41
2023-02-08T19:13:31.764Z,98652.13
2023-02-08T19:16:35.846Z,98654.97
2023-02-08T19:19:37.351Z,98656.06
2023-02-08T19:22:38.819Z,98649.31
2023-02-08T19:25:40.351Z,98642.41
2023-02-08T19:28:41.894Z,98640.97
2023-02-08T19:31:44.269Z,98636.72
2023-02-08T19:34:45.838Z,98640.97
2023-02-08T19:37:50.399Z,98640.09
2023-02-08T19:40:55.418Z,98633.34
2023-02-08T19:43:56.899Z,98623.56
2023-02-08T19:46:58.606Z,98628.53
2023-02-08T19:50:00.149Z,98627.59
2023-02-08T19:53:01.759Z,98629.88
2023-02-08T19:56:08.617Z,98628.91
2023-02-08T19:59:22.495Z,98637.22
2023-02-08T20:02:27.235Z,98639.66
2023-02-08T20:05:28.814Z,98638.66
2023-02-08T20:08:30.619Z,98643.75
2023-02-08T20:11:37.083Z,98641.09
2023-02-08T20:14:40.137Z,98624.66
2023-02-08T20:17:42.373Z,98621.69
2023-02-08T20:20:44.045Z,98623.06
2023-02-08T20:23:45.831Z,98616.75
2023-02-08T20:26:48.157Z,98618.19
2023-02-08T20:29:49.624Z,98604.63
2023-02-08T20:32:52.723Z,98613.69
2023-02-08T20:35:55.295Z,98626.03
2023-02-08T20:38:57.961Z,98630.28
2023-02-08T20:41:59.442Z,98626.59
2023-02-08T20:45:00.946Z,98623.22
2023-02-08T20:48:02.397Z,98623.78
2023-02-08T20:51:06.099Z,98627.97
2023-02-08T20:54:07.736Z,98632.44
2023-02-08T20:57:11.091Z,98627.03
2023-02-08T21:00:13.405Z,98632.38
2023-02-08T21:03:15.082Z,98638.50
2023-02-08T21:06:19.707Z,98636.97
2023-02-08T21:09:21.281Z,98636.28
2023-02-08T21:12:22.827Z,98627.94
2023-02-08T21:15:24.461Z,98635.63
2023-02-08T21:18:25.926Z,98630.53
2023-02-08T21:21:28.238Z,98630.81
2023-02-08T21:24:30.785Z,98633.72
2023-02-08T21:27:32.336Z,98633.72
2023-02-08T21:30:33.895Z,98627.16
2023-02-08T21:33:35.488Z,98635.84
2023-02-08T21:36:37.096Z,98632.59
2023-02-08T21:39:38.678Z,98631.56
2023-02-08T21:42:40.235Z,98626.44
2023-02-08T21:45:41.900Z,98627.09
2023-02-08T21:49:02.245Z,98627.78
2023-02-08T21:52:22.267Z,98620.78
2023-02-08T21:55:23.802Z,98629.91
2023-02-08T21:58:25.567Z,98630.66
2023-02-08T22:01:27.033Z,98630.78
2023-02-08T22:04:28.603Z,98632.75
2023-02-08T22:07:42.179Z,98630.38
2023-02-08T22:10:53.354Z,98628.03
2023-02-08T22:13:59.188Z,98626.38
2023-02-08T22:17:00.748Z,98618.81
2023-02-08T22:20:02.509Z,98634.19
2023-02-08T22:23:04.935Z,98632.53
2023-02-08T22:26:10.352Z,98629.22
2023-02-08T22:29:12.146Z,98630.00
2023-02-08T22:32:16.873Z,98635.06
2023-02-08T22:35:18.847Z,98628.03
2023-02-08T22:38:20.406Z,98642.09
2023-02-08T22:41:22.621Z,98637.91
2023-02-08T22:44:24.171Z,98630.88
2023-02-08T22:47:25.656Z,98636.34
2023-02-08T22:50:27.139Z,98632.38
2023-02-08T22:53:28.688Z,98627.34
2023-02-08T22:56:30.196Z,98634.41
2023-02-08T22:59:33.555Z,98630.31
2023-02-08T23:02:35.124Z,98631.09
2023-02-08T23:05:44.407Z,98638.75
2023-02-08T23:08:46.172Z,98621.44
2023-02-08T23:11:47.710Z,98629.25
2023-02-08T23:14:49.848Z,98622.59
2023-02-08T23:17:51.378Z,98624.47
2023-02-08T23:20:54.457Z,98618.66
2023-02-08T23:23:55.924Z,98615.25
2023-02-08T23:26:57.419Z,98613.69
2023-02-08T23:29:58.897Z,98622.44
2023-02-08T23:33:00.795Z,98618.94
2023-02-08T23:36:14.355Z,98608.22
2023-02-08T23:39:15.922Z,98616.16
2023-02-08T23:42:26.442Z,98608.31
2023-02-08T23:45:28.561Z,98609.88
2023-02-08T23:48:30.057Z,98610.19
2023-02-08T23:51:31.494Z,98605.19
2023-02-08T23:54:32.934Z,98609.88
2023-02-08T23:57:35.988Z,98613.59
